Time;durP1;ratioP1;P1;durP2;ratioP2;P2;SDS_P1;SDS_P2;PMS_P1;PMS_P2;Temp;Humidity;BMP_temperature;BMP_pressure;BME280_temperature;BME280_humidity;BME280_pressure;Samples;Min_cycle;Max_cycle;Signal;HPM_P1;HPM_P2
2022/10/31 00:02:51;;;;;;;9.80;5.72;;;;;;;-145.48;100.00;64539.38;5979110;29;20050;-90
2022/10/31 00:05:53;;;;;;;10.07;5.18;;;;;;;-145.48;100.00;64539.38;5993591;29;20042;-90
2022/10/31 00:09:04;;;;;;;11.82;6.20;;;;;;;-145.48;100.00;64539.38;5969434;29;20125;-90
2022/10/31 00:12:06;;;;;;;7.32;5.65;;;;;;;-145.48;100.00;64539.38;5977295;29;20130;-90
2022/10/31 00:15:09;;;;;;;11.15;5.90;;;;;;;-145.48;100.00;64539.38;5979094;29;20039;-90
2022/10/31 00:18:11;;;;;;;12.25;5.78;;;;;;;-145.48;100.00;64539.38;5979313;29;20046;-90
2022/10/31 00:21:12;;;;;;;12.57;6.47;;;;;;;-145.48;100.00;64539.38;5978668;29;20456;-90
2022/10/31 00:24:14;;;;;;;11.57;6.78;;;;;;;-145.48;100.00;64539.38;5978447;29;20164;-90
2022/10/31 00:27:16;;;;;;;11.27;6.35;;;;;;;-145.48;100.00;64539.38;5977925;29;20050;-90
2022/10/31 00:30:18;;;;;;;15.23;6.47;;;;;;;-145.48;100.00;64539.38;5978548;29;20418;-90
2022/10/31 00:33:20;;;;;;;17.25;7.85;;;;;;;-145.48;100.00;64539.38;5978296;29;20091;-90
2022/10/31 00:36:22;;;;;;;13.95;7.40;;;;;;;-145.48;100.00;64539.38;5978177;29;20121;-90
2022/10/31 00:39:24;;;;;;;16.10;7.20;;;;;;;-145.48;100.00;64539.38;5978933;29;20050;-90
2022/10/31 00:42:26;;;;;;;16.02;8.50;;;;;;;-145.48;100.00;64539.38;5992334;29;20195;-90
2022/10/31 00:45:31;;;;;;;13.10;7.18;;;;;;;-145.48;100.00;64539.38;5991324;29;20054;-90
2022/10/31 00:48:37;;;;;;;14.80;8.18;;;;;;;-145.48;100.00;64539.38;5991456;29;20057;-90
2022/10/31 00:51:39;;;;;;;16.30;7.78;;;;;;;-145.48;100.00;64539.38;5991880;29;20477;-90
2022/10/31 00:54:44;;;;;;;14.90;7.75;;;;;;;-145.48;100.00;64539.38;5977256;29;20050;-90
2022/10/31 00:57:47;;;;;;;16.13;8.35;;;;;;;-145.48;100.00;64539.38;5976826;29;20441;-90
2022/10/31 01:00:55;;;;;;;18.23;9.00;;;;;;;-145.48;100.00;64539.38;5977790;29;20398;-90
2022/10/31 01:03:58;;;;;;;17.63;9.13;;;;;;;-145.48;100.00;64539.38;5985398;29;20055;-90
2022/10/31 01:07:00;;;;;;;16.60;9.35;;;;;;;-145.48;100.00;64539.38;5977630;29;20043;-90
2022/10/31 01:10:03;;;;;;;17.75;9.98;;;;;;;-145.48;100.00;64539.38;5976321;29;20058;-90
2022/10/31 01:13:05;;;;;;;21.80;10.00;;;;;;;-145.48;100.00;64539.38;5991965;29;20054;-90
2022/10/31 01:16:09;;;;;;;23.52;10.27;;;;;;;-145.48;100.00;64539.38;5962319;29;20099;-90
2022/10/31 01:19:11;;;;;;;25.15;12.07;;;;;;;-145.48;100.00;64539.38;5991929;29;20133;-90
2022/10/31 01:22:13;;;;;;;24.23;11.48;;;;;;;-145.48;100.00;64539.38;5977309;29;20046;-90
2022/10/31 01:25:14;;;;;;;28.40;13.13;;;;;;;-145.48;100.00;64539.38;5978305;29;20498;-90
2022/10/31 01:28:16;;;;;;;27.15;13.45;;;;;;;-145.48;100.00;64539.38;5977002;29;20042;-90
2022/10/31 01:31:21;;;;;;;29.50;13.85;;;;;;;-145.48;100.00;64539.38;5991631;29;20054;-90
2022/10/31 01:34:23;;;;;;;32.45;15.45;;;;;;;-145.48;100.00;64539.38;5977789;29;20050;-90
2022/10/31 01:37:25;;;;;;;33.25;16.73;;;;;;;-145.48;100.00;64539.38;5976934;29;20046;-90
2022/10/31 01:40:30;;;;;;;35.05;16.55;;;;;;;-145.48;100.00;64539.38;5978173;29;20054;-90
2022/10/31 01:44:02;;;;;;;30.67;16.60;;;;;;;-145.48;100.00;64539.38;5989306;29;20046;-90
2022/10/31 01:47:13;;;;;;;33.45;17.08;;;;;;;-145.48;100.00;64539.38;5953742;29;20451;-90
2022/10/31 01:50:37;;;;;;;34.22;15.93;;;;;;;-145.48;100.00;64539.38;5976264;29;20422;-90
2022/10/31 01:53:40;;;;;;;34.83;16.70;;;;;;;-145.48;100.00;64539.38;5990686;29;20417;-90
2022/10/31 01:56:48;;;;;;;35.90;17.63;;;;;;;-145.48;100.00;64539.38;5977042;29;20544;-90
2022/10/31 01:59:55;;;;;;;34.50;17.17;;;;;;;-145.48;100.00;64539.38;5977814;29;20054;-91
2022/10/31 02:02:59;;;;;;;35.00;17.75;;;;;;;-145.48;100.00;64539.38;5980033;29;20038;-90
2022/10/31 02:06:05;;;;;;;35.45;17.23;;;;;;;-145.48;100.00;64539.38;5995716;29;20081;-90
2022/10/31 02:09:08;;;;;;;34.92;17.42;;;;;;;-145.48;100.00;64539.38;5994983;29;20050;-90
2022/10/31 02:12:10;;;;;;;38.28;17.30;;;;;;;-145.48;100.00;64539.38;5981380;29;20053;-90
2022/10/31 02:15:12;;;;;;;32.97;17.25;;;;;;;-145.48;100.00;64539.38;5979467;29;20055;-90
2022/10/31 02:18:18;;;;;;;30.77;16.92;;;;;;;-145.48;100.00;64539.38;5995200;29;20053;-90
2022/10/31 02:21:49;;;;;;;36.58;17.67;;;;;;;-145.48;100.00;64539.38;5993731;29;20062;-90
2022/10/31 02:25:03;;;;;;;36.95;17.95;;;;;;;-145.48;100.00;64539.38;5981039;29;20058;-90
2022/10/31 02:28:24;;;;;;;34.20;17.48;;;;;;;-145.48;100.00;64539.38;5995203;29;20466;-90
2022/10/31 02:31:43;;;;;;;;;;;;;;;-145.48;100.00;64539.38;5964038;29;20058;-89
2022/10/31 02:35:14;;;;;;;29.67;16.13;;;;;;;-145.48;100.00;64539.38;5994794;29;19935;-90
2022/10/31 02:38:34;;;;;;;34.60;16.20;;;;;;;-145.48;100.00;64539.38;5984116;29;20074;-90
2022/10/31 02:42:03;;;;;;;35.03;16.60;;;;;;;-145.48;100.00;64539.38;5969418;29;20062;-90
2022/10/31 02:45:14;;;;;;;39.67;17.00;;;;;;;-145.48;100.00;64539.38;5980086;29;20046;-90
2022/10/31 02:48:27;;;;;;;36.70;17.00;;;;;;;-145.48;100.00;64539.38;5993569;29;20059;-90
2022/10/31 02:51:30;;;;;;;29.40;16.02;;;;;;;-145.48;100.00;64539.38;5993549;29;20050;-90
2022/10/31 02:54:31;;;;;;;29.63;16.45;;;;;;;-145.48;100.00;64539.38;5979622;29;20046;-90
2022/10/31 02:57:35;;;;;;;38.55;17.35;;;;;;;-145.48;100.00;64539.38;5992674;29;20061;-90
2022/10/31 03:00:41;;;;;;;31.75;16.27;;;;;;;-145.48;100.00;64539.38;5979374;29;20046;-90
2022/10/31 03:04:09;;;;;;;27.90;15.27;;;;;;;-145.48;100.00;64539.38;5993256;29;20046;-90
2022/10/31 03:07:16;;;;;;;30.85;14.90;;;;;;;-145.48;100.00;64539.38;5992862;29;20050;-90
2022/10/31 03:10:56;;;;;;;30.20;15.10;;;;;;;-145.48;100.00;64539.38;5993650;29;20047;-90
2022/10/31 03:14:36;;;;;;;39.03;15.93;;;;;;;-145.48;100.00;64539.38;5991842;29;20050;-90
2022/10/31 03:18:00;;;;;;;32.42;15.38;;;;;;;-145.48;100.00;64539.38;5968283;29;20062;-91
2022/10/31 03:21:24;;;;;;;32.72;15.40;;;;;;;-145.48;100.00;64539.38;5976112;29;20473;-90
2022/10/31 03:24:31;;;;;;;30.38;15.00;;;;;;;-145.48;100.00;64539.38;5939214;29;20774;-91
2022/10/31 03:27:37;;;;;;;32.30;15.48;;;;;;;-145.48;100.00;64539.38;5970445;29;20058;-90
2022/10/31 03:30:43;;;;;;;33.30;15.75;;;;;;;-145.48;100.00;64539.38;5975676;29;20054;-90
2022/10/31 03:33:48;;;;;;;28.42;15.15;;;;;;;-145.48;100.00;64539.38;5953688;29;20511;-91
2022/10/31 03:36:56;;;;;;;26.75;14.50;;;;;;;-145.48;100.00;64539.38;5976950;29;20137;-90
2022/10/31 03:40:00;;;;;;;28.77;15.52;;;;;;;-145.48;100.00;64539.38;5960776;29;20763;-90
2022/10/31 03:43:10;;;;;;;33.95;15.95;;;;;;;-145.48;100.00;64539.38;5974133;29;20050;-91
2022/10/31 03:46:12;;;;;;;37.00;15.73;;;;;;;-145.48;100.00;64539.38;5959927;29;20061;-90
2022/10/31 03:49:15;;;;;;;33.42;15.70;;;;;;;-145.48;100.00;64539.38;5938350;29;20050;-90
2022/10/31 03:52:22;;;;;;;28.88;14.85;;;;;;;-145.48;100.00;64539.38;5975075;29;20134;-91
2022/10/31 03:55:50;;;;;;;28.88;15.75;;;;;;;-145.48;100.00;64539.38;5978976;29;20104;-91
2022/10/31 03:59:24;;;;;;;33.90;15.23;;;;;;;-145.48;100.00;64539.38;5975458;29;20094;-91
2022/10/31 04:02:31;;;;;;;31.10;15.48;;;;;;;-145.48;100.00;64539.38;5931326;29;20983;-90
2022/10/31 04:05:37;;;;;;;35.35;16.00;;;;;;;-145.48;100.00;64539.38;5942612;29;20058;-90
2022/10/31 04:08:50;;;;;;;30.05;14.65;;;;;;;-145.48;100.00;64539.38;5943066;29;20534;-90
2022/10/31 04:11:56;;;;;;;30.77;15.02;;;;;;;-145.48;100.00;64539.38;5930612;29;20092;-90
2022/10/31 04:15:20;;;;;;;34.53;15.07;;;;;;;-145.48;100.00;64539.38;5932987;29;20191;-90
2022/10/31 04:18:24;;;;;;;31.50;14.73;;;;;;;-145.48;100.00;64539.38;5929506;29;20047;-90
2022/10/31 04:21:31;;;;;;;27.40;13.95;;;;;;;-145.48;100.00;64539.38;5936602;29;20594;-91
2022/10/31 04:24:33;;;;;;;30.67;14.25;;;;;;;-145.48;100.00;64539.38;5934697;29;20093;-91
2022/10/31 04:27:36;;;;;;;26.17;13.73;;;;;;;-145.48;100.00;64539.38;5940224;29;20590;-90
2022/10/31 04:30:38;;;;;;;32.08;14.25;;;;;;;-145.48;100.00;64539.38;5945909;29;20061;-90
2022/10/31 04:33:40;;;;;;;33.58;14.77;;;;;;;-145.48;100.00;64539.38;5931622;29;20708;-90
2022/10/31 04:36:42;;;;;;;26.60;13.50;;;;;;;-145.48;100.00;64539.38;5966584;29;20761;-90
2022/10/31 04:39:44;;;;;;;22.42;12.05;;;;;;;-145.48;100.00;64539.38;5960142;29;20069;-90
2022/10/31 04:43:04;;;;;;;25.90;12.18;;;;;;;-145.48;100.00;64539.38;5990231;29;20059;-90
2022/10/31 04:46:07;;;;;;;19.33;11.32;;;;;;;-145.48;100.00;64539.38;5992229;29;20206;-90
2022/10/31 04:49:09;;;;;;;20.67;11.35;;;;;;;-145.48;100.00;64539.38;5999944;29;20078;-90
2022/10/31 04:52:11;;;;;;;25.13;11.00;;;;;;;-145.48;100.00;64539.38;5979343;29;20046;-90
2022/10/31 04:55:15;;;;;;;24.08;11.52;;;;;;;-145.48;100.00;64539.38;5991329;29;20561;-89
2022/10/31 04:58:35;;;;;;;24.17;11.90;;;;;;;-145.48;100.00;64539.38;5978935;29;20054;-90
2022/10/31 05:01:41;;;;;;;25.42;12.13;;;;;;;-145.48;100.00;64539.38;5991904;29;20214;-90
2022/10/31 05:04:44;;;;;;;25.58;11.82;;;;;;;-145.48;100.00;64539.38;5992033;29;20118;-90
2022/10/31 05:07:47;;;;;;;28.60;12.30;;;;;;;-145.48;100.00;64539.38;5991578;29;20042;-91
2022/10/31 05:10:51;;;;;;;21.45;10.50;;;;;;;-145.48;100.00;64539.38;5991778;29;20417;-90
2022/10/31 05:13:53;;;;;;;22.77;11.13;;;;;;;-145.48;100.00;64539.38;5978433;29;20660;-91
2022/10/31 05:17:14;;;;;;;;;;;;;;;-145.48;100.00;64539.38;5989851;29;20042;-90
2022/10/31 05:20:34;;;;;;;19.20;11.67;;;;;;;-145.48;100.00;64539.38;5977698;29;19929;-90
2022/10/31 05:23:48;;;;;;;20.38;11.63;;;;;;;-145.48;100.00;64539.38;5990508;29;20409;-91
2022/10/31 05:26:51;;;;;;;22.95;11.25;;;;;;;-145.48;100.00;64539.38;5976222;29;20051;-90
2022/10/31 05:29:53;;;;;;;20.75;11.07;;;;;;;-145.48;100.00;64539.38;5992053;29;20178;-90
2022/10/31 05:32:56;;;;;;;24.92;12.10;;;;;;;-145.48;100.00;64539.38;5976140;29;20421;-91
2022/10/31 05:36:17;;;;;;;;;;;;;;;-145.48;100.00;64539.38;5976554;29;20050;-91
2022/10/31 05:39:26;;;;;;;18.15;10.52;;;;;;;-145.48;100.00;64539.38;5994610;29;20011;-90
2022/10/31 05:42:33;;;;;;;22.77;11.35;;;;;;;-145.48;100.00;64539.38;5995454;29;20207;-90
2022/10/31 05:45:35;;;;;;;24.00;12.20;;;;;;;-145.48;100.00;64539.38;5998685;29;20050;-91
2022/10/31 05:48:41;;;;;;;22.58;11.88;;;;;;;-145.48;100.00;64539.38;6001345;29;20042;-91
2022/10/31 05:52:01;;;;;;;25.00;12.43;;;;;;;-145.48;100.00;64539.38;5981554;29;20046;-90
2022/10/31 05:55:28;;;;;;;21.23;11.95;;;;;;;-145.48;100.00;64539.38;5977523;29;20074;-91
2022/10/31 05:58:56;;;;;;;19.23;10.80;;;;;;;-145.48;100.00;64539.38;5976566;29;20065;-91
2022/10/31 06:02:00;;;;;;;22.90;11.02;;;;;;;-145.48;100.00;64539.38;5977092;29;20143;-91
2022/10/31 06:05:25;;;;;;;18.15;9.90;;;;;;;-145.48;100.00;64539.38;5977093;29;20109;-90
2022/10/31 06:08:27;;;;;;;20.05;9.88;;;;;;;-145.48;100.00;64539.38;5976399;29;20047;-91
2022/10/31 06:11:31;;;;;;;23.50;10.60;;;;;;;-145.48;100.00;64539.38;5973167;29;20050;-91
2022/10/31 06:14:32;;;;;;;20.35;9.95;;;;;;;-145.48;100.00;64539.38;5976615;29;20426;-91
2022/10/31 06:17:35;;;;;;;18.85;9.60;;;;;;;-145.48;100.00;64539.38;5977237;29;20141;-91
2022/10/31 06:20:36;;;;;;;24.88;9.93;;;;;;;-145.48;100.00;64539.38;5977309;29;20074;-91
2022/10/31 06:23:39;;;;;;;20.85;10.00;;;;;;;-145.48;100.00;64539.38;5976677;29;20046;-91
2022/10/31 06:27:07;;;;;;;20.20;9.43;;;;;;;-145.48;100.00;64539.38;5954731;29;20039;-90
2022/10/31 06:30:09;;;;;;;20.05;9.25;;;;;;;-145.48;100.00;64539.38;5939912;29;20481;-91
2022/10/31 06:33:11;;;;;;;21.58;9.60;;;;;;;-145.48;100.00;64539.38;5937186;29;20527;-91
2022/10/31 06:36:18;;;;;;;21.63;10.85;;;;;;;-145.48;100.00;64539.38;5932704;29;20609;-91
2022/10/31 06:39:21;;;;;;;22.08;10.45;;;;;;;-145.48;100.00;64539.38;5917410;29;20055;-91
2022/10/31 06:42:23;;;;;;;23.52;11.23;;;;;;;-145.48;100.00;64539.38;5901410;29;20132;-91
2022/10/31 06:45:26;;;;;;;20.17;9.57;;;;;;;-145.48;100.00;64539.38;5931992;29;20680;-91
2022/10/31 06:48:47;;;;;;;15.85;9.32;;;;;;;-145.48;100.00;64539.38;5932783;29;20040;-91
2022/10/31 06:52:07;;;;;;;19.30;9.35;;;;;;;-145.48;100.00;64539.38;5932434;29;20414;-91
2022/10/31 06:55:09;;;;;;;18.40;9.65;;;;;;;-145.48;100.00;64539.38;5932052;29;20169;-91
2022/10/31 06:58:12;;;;;;;15.63;8.88;;;;;;;-145.48;100.00;64539.38;5931737;29;20055;-91
2022/10/31 07:01:16;;;;;;;22.50;10.95;;;;;;;-145.48;100.00;64539.38;5932186;29;20055;-92
2022/10/31 07:04:18;;;;;;;19.65;11.13;;;;;;;-145.48;100.00;64539.38;5971806;29;20054;-91
2022/10/31 07:07:21;;;;;;;19.80;10.52;;;;;;;-145.48;100.00;64539.38;5993903;29;20098;-91
2022/10/31 07:10:27;;;;;;;21.35;10.98;;;;;;;-145.48;100.00;64539.38;5993456;29;20106;-91
2022/10/31 07:13:34;;;;;;;21.60;11.05;;;;;;;-145.48;100.00;64539.38;5993292;29;20105;-92
2022/10/31 07:16:40;;;;;;;22.55;11.02;;;;;;;-145.48;100.00;64539.38;5978207;29;20065;-91
2022/10/31 07:19:42;;;;;;;19.05;10.70;;;;;;;-145.48;100.00;64539.38;5963307;29;20047;-91
2022/10/31 07:22:46;;;;;;;23.25;11.63;;;;;;;-145.48;100.00;64539.38;5977790;29;20216;-92
2022/10/31 07:25:59;;;;;;;19.45;11.10;;;;;;;-145.48;100.00;64539.38;5992932;29;20071;-91
2022/10/31 07:29:09;;;;;;;19.58;10.68;;;;;;;-145.48;100.00;64539.38;5994035;29;20054;-92
2022/10/31 07:32:11;;;;;;;21.63;10.35;;;;;;;-145.48;100.00;64539.38;5993446;29;20146;-91
2022/10/31 07:35:26;;;;;;;17.95;10.98;;;;;;;-145.48;100.00;64539.38;5968528;29;20054;-92
2022/10/31 07:38:31;;;;;;;22.40;12.18;;;;;;;-145.48;100.00;64539.38;5985124;29;20515;-91
2022/10/31 07:41:38;;;;;;;22.98;11.43;;;;;;;-145.48;100.00;64539.38;5993406;29;20042;-91
2022/10/31 07:44:39;;;;;;;18.55;10.50;;;;;;;-145.48;100.00;64539.38;5994080;29;20054;-92
2022/10/31 07:47:50;;;;;;;20.95;11.38;;;;;;;-145.48;100.00;64539.38;5978923;29;20381;-91
2022/10/31 07:51:10;;;;;;;22.98;11.63;;;;;;;-145.48;100.00;64539.38;5980128;29;20066;-91
2022/10/31 07:54:47;;;;;;;22.17;11.50;;;;;;;-145.48;100.00;64539.38;5979068;29;20047;-91
2022/10/31 07:58:00;;;;;;;18.77;10.63;;;;;;;-145.48;100.00;64539.38;5962907;29;20049;-91
2022/10/31 08:01:03;;;;;;;22.15;11.70;;;;;;;-145.48;100.00;64539.38;5988526;29;20098;-92
2022/10/31 08:04:14;;;;;;;19.25;11.63;;;;;;;-145.48;100.00;64539.38;5986515;29;20792;-92
2022/10/31 08:07:37;;;;;;;24.42;11.35;;;;;;;-145.48;100.00;64539.38;5973831;29;20137;-91
2022/10/31 08:10:45;;;;;;;23.48;12.85;;;;;;;-145.48;100.00;64539.38;5993534;29;20510;-92
2022/10/31 08:13:47;;;;;;;22.88;12.55;;;;;;;-145.48;100.00;64539.38;5990623;29;20192;-92
2022/10/31 08:16:49;;;;;;;20.98;12.02;;;;;;;-145.48;100.00;64539.38;5962711;29;20406;-91
2022/10/31 08:19:52;;;;;;;23.00;12.55;;;;;;;-145.48;100.00;64539.38;5991953;29;20046;-91
2022/10/31 08:23:04;;;;;;;20.85;12.40;;;;;;;-145.48;100.00;64539.38;5992169;29;20057;-91
2022/10/31 08:26:08;;;;;;;24.45;12.20;;;;;;;-145.48;100.00;64539.38;5978884;29;20070;-91
2022/10/31 08:29:11;;;;;;;23.52;12.93;;;;;;;-145.48;100.00;64539.38;5992079;29;20398;-91
2022/10/31 08:32:14;;;;;;;27.88;14.07;;;;;;;-145.48;100.00;64539.38;5992152;29;20084;-91
2022/10/31 08:35:55;;;;;;;25.20;14.27;;;;;;;-145.48;100.00;64539.38;6019916;29;20060;-91
2022/10/31 08:39:15;;;;;;;27.33;14.40;;;;;;;-145.48;100.00;64539.38;6020594;29;20053;-91
2022/10/31 08:42:17;;;;;;;27.48;14.38;;;;;;;-145.48;100.00;64539.38;6004411;29;20306;-92
2022/10/31 08:45:18;;;;;;;27.70;13.63;;;;;;;-145.48;100.00;64539.38;6019659;29;20045;-91
2022/10/31 08:48:21;;;;;;;23.08;13.50;;;;;;;-145.48;100.00;64539.38;6019148;29;20069;-91
2022/10/31 08:51:24;;;;;;;23.30;13.30;;;;;;;-145.48;100.00;64539.38;6020069;29;20045;-91
2022/10/31 08:54:28;;;;;;;28.75;14.80;;;;;;;-145.48;100.00;64539.38;6012128;29;20068;-91
2022/10/31 08:57:30;;;;;;;25.65;14.13;;;;;;;-145.48;100.00;64539.38;6004121;29;20092;-92
2022/10/31 09:00:34;;;;;;;29.17;13.93;;;;;;;-145.48;100.00;64539.38;6001041;29;20089;-91
2022/10/31 09:03:44;;;;;;;21.83;12.70;;;;;;;-145.48;100.00;64539.38;6020571;29;20056;-91
2022/10/31 09:06:47;;;;;;;26.63;13.88;;;;;;;-145.48;100.00;64539.38;6000304;29;20409;-92
2022/10/31 09:10:08;;;;;;;28.05;15.55;;;;;;;-145.48;100.00;64539.38;5978330;29;20046;-92
2022/10/31 09:13:15;;;;;;;30.65;14.98;;;;;;;-145.48;100.00;64539.38;5989606;29;20421;-91
2022/10/31 09:16:53;;;;;;;25.27;13.95;;;;;;;-145.48;100.00;64539.38;6023622;29;20046;-91
2022/10/31 09:19:59;;;;;;;24.48;13.48;;;;;;;-145.48;100.00;64539.38;6007249;29;20417;-91
2022/10/31 09:23:09;;;;;;;27.15;14.20;;;;;;;-145.48;100.00;64539.38;6023092;29;20077;-92
2022/10/31 09:26:12;;;;;;;28.67;15.52;;;;;;;-145.48;100.00;64539.38;6022393;29;20662;-91
2022/10/31 09:29:27;;;;;;;29.30;15.23;;;;;;;-145.48;100.00;64539.38;6007607;29;20144;-91
2022/10/31 09:32:33;;;;;;;26.52;15.48;;;;;;;-145.48;100.00;64539.38;6007638;29;20077;-92
2022/10/31 09:35:35;;;;;;;29.58;14.52;;;;;;;-145.48;100.00;64539.38;6022470;29;20060;-92
2022/10/31 09:38:37;;;;;;;27.13;14.38;;;;;;;-145.48;100.00;64539.38;6003864;29;20045;-92
2022/10/31 09:42:14;;;;;;;31.33;13.65;;;;;;;-145.48;100.00;64539.38;6006229;29;20049;-92
2022/10/31 09:45:25;;;;;;;27.25;14.35;;;;;;;-145.48;100.00;64539.38;6002289;29;20237;-92
2022/10/31 09:49:10;;;;;;;25.35;14.18;;;;;;;-145.48;100.00;64539.38;6022840;29;20092;-91
2022/10/31 09:52:35;;;;;;;27.70;13.25;;;;;;;-145.48;100.00;64539.38;5979411;29;20521;-92
2022/10/31 09:55:44;;;;;;;27.60;13.40;;;;;;;-145.48;100.00;64539.38;5992604;29;20066;-92
2022/10/31 09:58:49;;;;;;;24.88;12.63;;;;;;;-145.48;100.00;64539.38;5995248;29;20086;-92
2022/10/31 10:01:57;;;;;;;25.10;12.50;;;;;;;-145.48;100.00;64539.38;5980213;29;20047;-92
2022/10/31 10:05:09;;;;;;;25.42;13.30;;;;;;;-145.48;100.00;64539.38;5977539;29;20107;-92
2022/10/31 10:08:21;;;;;;;26.95;13.18;;;;;;;-145.48;100.00;64539.38;5992975;29;20149;-92
2022/10/31 10:12:18;;;;;;;24.02;13.15;;;;;;;-145.48;100.00;64539.38;5990496;29;20058;-92
2022/10/31 10:15:20;;;;;;;;;;;;;;;-145.48;100.00;64539.38;5978712;29;20050;-92
2022/10/31 10:18:28;;;;;;;27.45;13.55;;;;;;;-145.48;100.00;64539.38;5992939;29;19929;-91
2022/10/31 10:21:37;;;;;;;24.77;13.10;;;;;;;-145.48;100.00;64539.38;5979928;29;20042;-91
2022/10/31 10:25:14;;;;;;;28.33;12.85;;;;;;;-145.48;100.00;64539.38;5978690;29;20047;-92
2022/10/31 10:28:38;;;;;;;27.63;13.18;;;;;;;-145.48;100.00;64539.38;5979800;29;20055;-92
2022/10/31 10:31:45;;;;;;;27.98;13.07;;;;;;;-145.48;100.00;64539.38;5980792;29;20042;-91
2022/10/31 10:34:51;;;;;;;25.55;12.15;;;;;;;-145.48;100.00;64539.38;5980245;29;20463;-92
2022/10/31 10:38:02;;;;;;;21.23;11.25;;;;;;;-145.48;100.00;64539.38;5993060;29;20560;-92
2022/10/31 10:41:19;;;;;;;20.38;12.10;;;;;;;-145.48;100.00;64539.38;5979845;29;20088;-91
2022/10/31 10:44:21;;;;;;;23.95;11.27;;;;;;;-145.48;100.00;64539.38;5979230;29;20050;-92
2022/10/31 10:47:41;;;;;;;21.77;10.95;;;;;;;-145.48;100.00;64539.38;5979945;29;20061;-92
2022/10/31 10:50:52;;;;;;;20.17;11.40;;;;;;;-145.48;100.00;64539.38;5977615;29;20528;-91
2022/10/31 10:54:13;;;;;;;;;;;;;;;-145.48;100.00;64539.38;5979290;29;21290;-92
2022/10/31 10:57:26;;;;;;;20.92;10.48;;;;;;;-145.48;100.00;64539.38;5980055;29;19931;-91
2022/10/31 11:00:42;;;;;;;20.02;11.05;;;;;;;-145.48;100.00;64539.38;5992721;29;20572;-92
2022/10/31 11:03:44;;;;;;;19.08;10.68;;;;;;;-145.48;100.00;64539.38;5993486;29;20043;-92
2022/10/31 11:07:02;;;;;;;21.63;11.68;;;;;;;-145.48;100.00;64539.38;5977524;29;20051;-91
2022/10/31 11:10:12;;;;;;;21.85;11.18;;;;;;;-145.48;100.00;64539.38;5979442;29;20046;-91
2022/10/31 11:13:20;;;;;;;18.33;10.60;;;;;;;-145.48;100.00;64539.38;5989649;29;20065;-91
2022/10/31 11:16:36;;;;;;;21.27;10.70;;;;;;;-145.48;100.00;64539.38;5978777;29;20434;-92
2022/10/31 11:19:41;;;;;;;23.75;12.30;;;;;;;-145.48;100.00;64539.38;5979579;29;20057;-91
2022/10/31 11:22:46;;;;;;;20.92;11.95;;;;;;;-145.48;100.00;64539.38;5992132;29;20050;-92
2022/10/31 11:25:50;;;;;;;19.02;10.30;;;;;;;-145.48;100.00;64539.38;5979036;29;20145;-91
2022/10/31 11:28:58;;;;;;;22.42;10.50;;;;;;;-145.48;100.00;64539.38;5975146;29;20122;-92
2022/10/31 11:32:01;;;;;;;19.08;10.07;;;;;;;-145.48;100.00;64539.38;5992533;29;20038;-91
2022/10/31 11:35:10;;;;;;;19.88;10.20;;;;;;;-145.48;100.00;64539.38;5978335;29;20058;-92
2022/10/31 11:38:22;;;;;;;22.33;10.65;;;;;;;-145.48;100.00;64539.38;5979632;29;20409;-92
2022/10/31 11:41:28;;;;;;;15.88;9.60;;;;;;;-145.48;100.00;64539.38;5974577;29;20050;-91
2022/10/31 11:44:32;;;;;;;20.35;9.32;;;;;;;-145.48;100.00;64539.38;5977280;29;20450;-92
2022/10/31 11:47:34;;;;;;;19.52;10.07;;;;;;;-145.48;100.00;64539.38;5976314;29;20061;-91
2022/10/31 11:50:39;;;;;;;19.98;10.35;;;;;;;-145.48;100.00;64539.38;5979024;29;20050;-91
2022/10/31 11:53:51;;;;;;;20.00;10.10;;;;;;;-145.48;100.00;64539.38;5977011;29;20091;-91
2022/10/31 11:57:00;;;;;;;16.52;9.82;;;;;;;-145.48;100.00;64539.38;5990782;29;20138;-92
2022/10/31 12:00:17;;;;;;;21.00;9.25;;;;;;;-145.48;100.00;64539.38;5978159;29;20524;-92
2022/10/31 12:03:40;;;;;;;16.15;10.07;;;;;;;-145.48;100.00;64539.38;5978497;29;20172;-92
2022/10/31 12:06:50;;;;;;;19.50;9.27;;;;;;;-145.48;100.00;64539.38;5978700;29;20050;-91
2022/10/31 12:09:52;;;;;;;19.08;8.93;;;;;;;-145.48;100.00;64539.38;5978148;29;20070;-91
2022/10/31 12:13:19;;;;;;;18.00;8.30;;;;;;;-145.48;100.00;64539.38;5973834;29;20313;-91
2022/10/31 12:16:44;;;;;;;20.02;7.88;;;;;;;-145.48;100.00;64539.38;5977674;29;20322;-92
2022/10/31 12:20:04;;;;;;;14.68;8.00;;;;;;;-145.48;100.00;64539.38;5977762;29;20046;-91
2022/10/31 12:23:41;;;;;;;15.45;8.55;;;;;;;-145.48;100.00;64539.38;5976983;29;20046;-91
2022/10/31 12:27:14;;;;;;;18.85;7.88;;;;;;;-145.48;100.00;64539.38;5977298;29;20063;-91
2022/10/31 12:30:20;;;;;;;12.98;7.25;;;;;;;-145.48;100.00;64539.38;5975301;29;20058;-91
2022/10/31 12:33:47;;;;;;;16.20;7.32;;;;;;;-145.48;100.00;64539.38;5991395;29;20149;-91
2022/10/31 12:37:28;;;;;;;13.63;7.45;;;;;;;-145.48;100.00;64539.38;5977513;29;20050;-91
2022/10/31 12:41:07;;;;;;;13.07;7.55;;;;;;;-145.48;100.00;64539.38;5977930;29;20126;-91
2022/10/31 12:44:43;;;;;;;14.10;7.47;;;;;;;-145.48;100.00;64539.38;5975687;29;20046;-91
2022/10/31 12:48:10;;;;;;;14.27;7.55;;;;;;;-145.48;100.00;64539.38;5977511;29;20367;-91
2022/10/31 12:51:23;;;;;;;12.70;7.85;;;;;;;-145.48;100.00;64539.38;5975990;29;20081;-91
2022/10/31 12:55:03;;;;;;;13.68;8.40;;;;;;;-145.48;100.00;64539.38;5977462;29;20679;-91
2022/10/31 12:58:26;;;;;;;;;;;;;;;-145.48;100.00;64539.38;5966393;29;20289;-91
2022/10/31 13:01:35;;;;;;;13.40;7.22;;;;;;;-145.48;100.00;64539.38;5971109;29;19975;-91
2022/10/31 13:04:56;;;;;;;18.45;7.15;;;;;;;-145.48;100.00;64539.38;5971510;29;20049;-91
2022/10/31 13:08:06;;;;;;;12.95;6.20;;;;;;;-145.48;100.00;64539.38;5971207;29;20113;-91
2022/10/31 13:11:18;;;;;;;12.98;6.43;;;;;;;-145.48;100.00;64539.38;5968085;29;20409;-91
2022/10/31 13:14:39;;;;;;;13.73;6.35;;;;;;;-145.48;100.00;64539.38;5973018;29;20066;-91
2022/10/31 13:17:45;;;;;;;10.75;7.10;;;;;;;-145.48;100.00;64539.38;5970310;29;20054;-91
2022/10/31 13:20:48;;;;;;;15.70;7.05;;;;;;;-145.48;100.00;64539.38;5973661;29;20058;-91
2022/10/31 13:24:00;;;;;;;11.15;6.07;;;;;;;-145.48;100.00;64539.38;5973403;29;20524;-91
2022/10/31 13:27:12;;;;;;;15.52;6.32;;;;;;;-145.48;100.00;64539.38;5972284;29;20070;-91
2022/10/31 13:30:13;;;;;;;13.43;6.45;;;;;;;-145.48;100.00;64539.38;5972495;29;20695;-91
2022/10/31 13:33:41;;;;;;;13.75;6.63;;;;;;;-145.48;100.00;64539.38;5974012;29;20104;-91
2022/10/31 13:36:54;;;;;;;14.15;6.82;;;;;;;-145.48;100.00;64539.38;5989004;29;20494;-91
2022/10/31 13:40:37;;;;;;;16.13;7.75;;;;;;;-145.48;100.00;64539.38;5976223;29;20049;-91
2022/10/31 13:44:06;;;;;;;13.60;6.80;;;;;;;-145.48;100.00;64539.38;5975316;29;20046;-91
2022/10/31 13:47:26;;;;;;;16.17;7.25;;;;;;;-145.48;100.00;64539.38;5974475;29;20130;-91
2022/10/31 13:50:31;;;;;;;15.30;7.38;;;;;;;-145.48;100.00;64539.38;5975148;29;20043;-91
2022/10/31 13:53:42;;;;;;;17.08;8.95;;;;;;;-145.48;100.00;64539.38;5975964;29;20050;-91
2022/10/31 13:56:50;;;;;;;14.23;7.35;;;;;;;-145.48;100.00;64539.38;5977764;29;20203;-91
2022/10/31 13:59:55;;;;;;;17.92;8.40;;;;;;;-145.48;100.00;64539.38;5979875;29;20504;-91
2022/10/31 14:02:57;;;;;;;16.85;8.25;;;;;;;-145.48;100.00;64539.38;5980265;29;20038;-91
2022/10/31 14:06:00;;;;;;;17.48;8.73;;;;;;;-145.48;100.00;64539.38;5993351;29;20547;-91
2022/10/31 14:09:03;;;;;;;21.83;8.43;;;;;;;-145.48;100.00;64539.38;5993251;29;20545;-91
2022/10/31 14:12:12;;;;;;;20.33;9.80;;;;;;;-145.48;100.00;64539.38;5992822;29;20054;-91